sensor_id;sensor_type;location;lat;lon;timestamp;temperature;humidity
20771;DHT22;10545;36.536;23.064;2022-07-23T00:00:40;27.70;74.50
20771;DHT22;10545;36.536;23.064;2022-07-23T00:03:06;27.70;74.50
20771;DHT22;10545;36.536;23.064;2022-07-23T00:05:32;27.70;75.00
20771;DHT22;10545;36.536;23.064;2022-07-23T00:07:59;27.70;75.30
20771;DHT22;10545;36.536;23.064;2022-07-23T00:10:25;27.60;75.10
20771;DHT22;10545;36.536;23.064;2022-07-23T00:12:51;27.70;75.10
20771;DHT22;10545;36.536;23.064;2022-07-23T00:15:18;27.60;74.70
20771;DHT22;10545;36.536;23.064;2022-07-23T00:17:44;27.60;74.40
20771;DHT22;10545;36.536;23.064;2022-07-23T00:20:10;27.60;74.20
20771;DHT22;10545;36.536;23.064;2022-07-23T00:22:36;27.60;73.80
20771;DHT22;10545;36.536;23.064;2022-07-23T00:25:11;27.60;73.60
20771;DHT22;10545;36.536;23.064;2022-07-23T00:27:39;27.60;73.30
20771;DHT22;10545;36.536;23.064;2022-07-23T00:30:05;27.60;73.20
20771;DHT22;10545;36.536;23.064;2022-07-23T00:32:31;27.60;73.10
20771;DHT22;10545;36.536;23.064;2022-07-23T00:34:58;27.70;73.20
20771;DHT22;10545;36.536;23.064;2022-07-23T00:37:24;27.70;73.00
20771;DHT22;10545;36.536;23.064;2022-07-23T00:39:50;27.70;73.00
20771;DHT22;10545;36.536;23.064;2022-07-23T00:42:16;27.70;72.90
20771;DHT22;10545;36.536;23.064;2022-07-23T00:44:42;27.70;72.90
20771;DHT22;10545;36.536;23.064;2022-07-23T00:47:09;27.80;72.80
20771;DHT22;10545;36.536;23.064;2022-07-23T00:49:35;27.80;72.60
20771;DHT22;10545;36.536;23.064;2022-07-23T00:52:02;27.80;72.60
20771;DHT22;10545;36.536;23.064;2022-07-23T00:54:29;27.90;72.60
20771;DHT22;10545;36.536;23.064;2022-07-23T00:56:55;27.90;72.50
20771;DHT22;10545;36.536;23.064;2022-07-23T00:59:22;27.90;72.40
20771;DHT22;10545;36.536;23.064;2022-07-23T01:04:23;28.00;72.20
20771;DHT22;10545;36.536;23.064;2022-07-23T01:06:50;28.00;72.10
20771;DHT22;10545;36.536;23.064;2022-07-23T01:09:16;28.00;72.00
20771;DHT22;10545;36.536;23.064;2022-07-23T01:11:43;28.00;72.00
20771;DHT22;10545;36.536;23.064;2022-07-23T01:14:16;28.10;72.00
20771;DHT22;10545;36.536;23.064;2022-07-23T01:16:45;28.10;72.00
20771;DHT22;10545;36.536;23.064;2022-07-23T01:19:13;28.10;71.90
20771;DHT22;10545;36.536;23.064;2022-07-23T01:21:45;28.10;72.00
20771;DHT22;10545;36.536;23.064;2022-07-23T01:24:13;28.00;71.90
20771;DHT22;10545;36.536;23.064;2022-07-23T01:26:44;28.00;72.10
20771;DHT22;10545;36.536;23.064;2022-07-23T01:29:11;28.10;72.20
20771;DHT22;10545;36.536;23.064;2022-07-23T01:31:37;28.10;72.30
20771;DHT22;10545;36.536;23.064;2022-07-23T01:34:04;28.10;72.30
20771;DHT22;10545;36.536;23.064;2022-07-23T01:36:31;28.10;72.20
20771;DHT22;10545;36.536;23.064;2022-07-23T01:38:58;28.10;72.00
20771;DHT22;10545;36.536;23.064;2022-07-23T01:41:24;28.10;71.80
20771;DHT22;10545;36.536;23.064;2022-07-23T01:43:50;28.10;71.70
20771;DHT22;10545;36.536;23.064;2022-07-23T01:46:16;28.10;71.60
20771;DHT22;10545;36.536;23.064;2022-07-23T01:48:42;28.20;71.70
20771;DHT22;10545;36.536;23.064;2022-07-23T01:51:09;28.10;71.50
20771;DHT22;10545;36.536;23.064;2022-07-23T01:53:35;28.10;71.40
20771;DHT22;10545;36.536;23.064;2022-07-23T01:56:02;28.10;71.40
20771;DHT22;10545;36.536;23.064;2022-07-23T01:58:29;28.10;71.40
20771;DHT22;10545;36.536;23.064;2022-07-23T02:00:55;28.10;71.60
20771;DHT22;10545;36.536;23.064;2022-07-23T02:03:22;28.00;71.80
20771;DHT22;10545;36.536;23.064;2022-07-23T02:05:49;28.00;72.10
20771;DHT22;10545;36.536;23.064;2022-07-23T02:08:15;28.00;72.20
20771;DHT22;10545;36.536;23.064;2022-07-23T02:10:41;27.90;72.40
20771;DHT22;10545;36.536;23.064;2022-07-23T02:13:07;27.90;72.70
20771;DHT22;10545;36.536;23.064;2022-07-23T02:15:34;27.80;72.90
20771;DHT22;10545;36.536;23.064;2022-07-23T02:18:00;27.70;73.00
20771;DHT22;10545;36.536;23.064;2022-07-23T02:20:27;27.70;73.90
20771;DHT22;10545;36.536;23.064;2022-07-23T02:22:53;27.70;73.30
20771;DHT22;10545;36.536;23.064;2022-07-23T02:25:22;27.60;73.30
20771;DHT22;10545;36.536;23.064;2022-07-23T02:27:48;27.60;73.40
20771;DHT22;10545;36.536;23.064;2022-07-23T02:30:14;27.60;73.60
20771;DHT22;10545;36.536;23.064;2022-07-23T02:32:41;27.60;73.60
20771;DHT22;10545;36.536;23.064;2022-07-23T02:35:08;27.50;73.50
20771;DHT22;10545;36.536;23.064;2022-07-23T02:37:34;27.50;73.60
20771;DHT22;10545;36.536;23.064;2022-07-23T02:40:00;27.50;73.70
20771;DHT22;10545;36.536;23.064;2022-07-23T02:42:26;27.50;73.80
20771;DHT22;10545;36.536;23.064;2022-07-23T02:44:52;27.40;73.80
20771;DHT22;10545;36.536;23.064;2022-07-23T02:47:18;27.40;74.00
20771;DHT22;10545;36.536;23.064;2022-07-23T02:49:45;27.30;74.20
20771;DHT22;10545;36.536;23.064;2022-07-23T02:52:11;27.30;74.20
20771;DHT22;10545;36.536;23.064;2022-07-23T02:54:38;27.30;74.40
20771;DHT22;10545;36.536;23.064;2022-07-23T02:57:05;27.30;74.60
20771;DHT22;10545;36.536;23.064;2022-07-23T02:59:31;27.30;74.80
20771;DHT22;10545;36.536;23.064;2022-07-23T03:01:57;27.30;74.90
20771;DHT22;10545;36.536;23.064;2022-07-23T03:04:23;27.30;75.20
20771;DHT22;10545;36.536;23.064;2022-07-23T03:06:49;27.30;75.50
20771;DHT22;10545;36.536;23.064;2022-07-23T03:09:15;27.30;76.10
20771;DHT22;10545;36.536;23.064;2022-07-23T03:11:42;27.30;76.90
20771;DHT22;10545;36.536;23.064;2022-07-23T03:14:08;27.30;76.40
20771;DHT22;10545;36.536;23.064;2022-07-23T03:16:34;27.30;76.60
20771;DHT22;10545;36.536;23.064;2022-07-23T03:19:00;27.30;76.70
20771;DHT22;10545;36.536;23.064;2022-07-23T03:21:26;27.30;76.60
20771;DHT22;10545;36.536;23.064;2022-07-23T03:23:52;27.30;76.80
20771;DHT22;10545;36.536;23.064;2022-07-23T03:26:19;27.30;76.80
20771;DHT22;10545;36.536;23.064;2022-07-23T03:28:45;27.30;76.90
20771;DHT22;10545;36.536;23.064;2022-07-23T03:31:11;27.30;77.20
20771;DHT22;10545;36.536;23.064;2022-07-23T03:33:37;27.30;77.20
20771;DHT22;10545;36.536;23.064;2022-07-23T03:36:04;27.30;77.30
20771;DHT22;10545;36.536;23.064;2022-07-23T03:38:30;27.30;77.60
20771;DHT22;10545;36.536;23.064;2022-07-23T03:40:56;27.30;77.60
20771;DHT22;10545;36.536;23.064;2022-07-23T03:43:22;27.30;77.70
20771;DHT22;10545;36.536;23.064;2022-07-23T03:45:51;27.40;78.00
20771;DHT22;10545;36.536;23.064;2022-07-23T03:48:18;27.30;77.80
20771;DHT22;10545;36.536;23.064;2022-07-23T03:50:44;27.30;78.20
20771;DHT22;10545;36.536;23.064;2022-07-23T03:53:10;27.30;78.50
20771;DHT22;10545;36.536;23.064;2022-07-23T03:55:36;27.40;78.70
20771;DHT22;10545;36.536;23.064;2022-07-23T03:58:02;27.40;79.20
20771;DHT22;10545;36.536;23.064;2022-07-23T04:00:31;27.40;79.30
20771;DHT22;10545;36.536;23.064;2022-07-23T04:02:57;27.40;79.40
20771;DHT22;10545;36.536;23.064;2022-07-23T04:05:24;27.40;79.50
20771;DHT22;10545;36.536;23.064;2022-07-23T04:07:50;27.40;79.50
20771;DHT22;10545;36.536;23.064;2022-07-23T04:10:16;27.40;80.60
20771;DHT22;10545;36.536;23.064;2022-07-23T04:12:42;27.40;80.80
20771;DHT22;10545;36.536;23.064;2022-07-23T04:15:09;27.40;81.10
20771;DHT22;10545;36.536;23.064;2022-07-23T04:17:38;27.40;81.90
20771;DHT22;10545;36.536;23.064;2022-07-23T04:20:05;27.40;82.20
20771;DHT22;10545;36.536;23.064;2022-07-23T04:22:32;27.30;82.60
20771;DHT22;10545;36.536;23.064;2022-07-23T04:24:58;27.30;83.70
20771;DHT22;10545;36.536;23.064;2022-07-23T04:27:27;27.30;84.20
20771;DHT22;10545;36.536;23.064;2022-07-23T04:29:53;27.30;84.40
20771;DHT22;10545;36.536;23.064;2022-07-23T04:32:20;27.30;85.10
20771;DHT22;10545;36.536;23.064;2022-07-23T04:34:46;27.30;86.20
20771;DHT22;10545;36.536;23.064;2022-07-23T04:37:12;27.30;86.20
20771;DHT22;10545;36.536;23.064;2022-07-23T04:39:38;27.30;86.60
20771;DHT22;10545;36.536;23.064;2022-07-23T04:42:04;27.30;87.20
20771;DHT22;10545;36.536;23.064;2022-07-23T04:44:30;27.20;87.40
20771;DHT22;10545;36.536;23.064;2022-07-23T04:46:56;27.20;87.70
20771;DHT22;10545;36.536;23.064;2022-07-23T04:49:23;27.20;87.90
20771;DHT22;10545;36.536;23.064;2022-07-23T04:51:49;27.20;90.40
20771;DHT22;10545;36.536;23.064;2022-07-23T04:54:15;27.20;92.50
20771;DHT22;10545;36.536;23.064;2022-07-23T04:56:41;27.20;90.10
20771;DHT22;10545;36.536;23.064;2022-07-23T04:59:07;27.10;92.30
20771;DHT22;10545;36.536;23.064;2022-07-23T05:01:33;27.10;90.30
20771;DHT22;10545;36.536;23.064;2022-07-23T05:03:59;27.10;90.00
20771;DHT22;10545;36.536;23.064;2022-07-23T05:06:25;27.20;89.90
20771;DHT22;10545;36.536;23.064;2022-07-23T05:08:51;27.20;88.30
20771;DHT22;10545;36.536;23.064;2022-07-23T05:11:17;27.40;88.50
20771;DHT22;10545;36.536;23.064;2022-07-23T05:13:43;27.50;88.10
20771;DHT22;10545;36.536;23.064;2022-07-23T05:16:10;27.60;88.00
20771;DHT22;10545;36.536;23.064;2022-07-23T05:18:36;27.70;87.30
20771;DHT22;10545;36.536;23.064;2022-07-23T05:21:02;27.90;86.90
20771;DHT22;10545;36.536;23.064;2022-07-23T05:23:28;28.00;86.70
20771;DHT22;10545;36.536;23.064;2022-07-23T05:25:54;28.00;85.40
20771;DHT22;10545;36.536;23.064;2022-07-23T05:28:20;28.00;85.30
20771;DHT22;10545;36.536;23.064;2022-07-23T05:30:46;28.00;85.70
20771;DHT22;10545;36.536;23.064;2022-07-23T05:33:12;28.10;85.70
20771;DHT22;10545;36.536;23.064;2022-07-23T05:35:38;28.20;85.40
20771;DHT22;10545;36.536;23.064;2022-07-23T05:38:04;28.20;84.90
20771;DHT22;10545;36.536;23.064;2022-07-23T05:40:30;28.20;85.00
20771;DHT22;10545;36.536;23.064;2022-07-23T05:42:58;28.30;85.20
20771;DHT22;10545;36.536;23.064;2022-07-23T05:45:24;28.40;85.20
20771;DHT22;10545;36.536;23.064;2022-07-23T05:47:51;28.50;87.40
20771;DHT22;10545;36.536;23.064;2022-07-23T05:50:18;28.70;89.20
20771;DHT22;10545;36.536;23.064;2022-07-23T05:52:44;28.70;87.10
20771;DHT22;10545;36.536;23.064;2022-07-23T05:55:11;28.80;87.70
20771;DHT22;10545;36.536;23.064;2022-07-23T05:57:38;28.80;86.60
20771;DHT22;10545;36.536;23.064;2022-07-23T06:00:07;28.80;86.00
20771;DHT22;10545;36.536;23.064;2022-07-23T06:02:33;28.80;85.00
20771;DHT22;10545;36.536;23.064;2022-07-23T06:04:59;28.80;85.70
20771;DHT22;10545;36.536;23.064;2022-07-23T06:07:25;28.80;87.20
20771;DHT22;10545;36.536;23.064;2022-07-23T06:09:51;28.80;83.70
20771;DHT22;10545;36.536;23.064;2022-07-23T06:12:17;28.90;82.60
20771;DHT22;10545;36.536;23.064;2022-07-23T06:14:44;29.00;83.30
20771;DHT22;10545;36.536;23.064;2022-07-23T06:17:10;29.00;83.50
20771;DHT22;10545;36.536;23.064;2022-07-23T06:19:37;29.10;82.80
20771;DHT22;10545;36.536;23.064;2022-07-23T06:22:03;29.20;81.40
20771;DHT22;10545;36.536;23.064;2022-07-23T06:24:29;29.30;81.00
20771;DHT22;10545;36.536;23.064;2022-07-23T06:26:58;29.40;85.40
20771;DHT22;10545;36.536;23.064;2022-07-23T06:29:24;29.40;88.60
20771;DHT22;10545;36.536;23.064;2022-07-23T06:31:50;29.40;87.90
20771;DHT22;10545;36.536;23.064;2022-07-23T06:34:16;29.40;86.20
20771;DHT22;10545;36.536;23.064;2022-07-23T06:36:42;29.40;87.80
20771;DHT22;10545;36.536;23.064;2022-07-23T06:39:08;29.50;88.80
20771;DHT22;10545;36.536;23.064;2022-07-23T06:41:34;29.70;84.10
20771;DHT22;10545;36.536;23.064;2022-07-23T06:44:01;29.80;84.60
20771;DHT22;10545;36.536;23.064;2022-07-23T06:46:27;29.90;80.80
20771;DHT22;10545;36.536;23.064;2022-07-23T06:48:53;30.10;76.30
20771;DHT22;10545;36.536;23.064;2022-07-23T06:51:19;30.10;75.70
20771;DHT22;10545;36.536;23.064;2022-07-23T06:53:47;30.20;75.10
20771;DHT22;10545;36.536;23.064;2022-07-23T06:56:13;30.40;75.50
20771;DHT22;10545;36.536;23.064;2022-07-23T06:58:38;30.50;74.00
20771;DHT22;10545;36.536;23.064;2022-07-23T07:01:05;30.50;79.00
20771;DHT22;10545;36.536;23.064;2022-07-23T07:03:31;30.50;75.00
20771;DHT22;10545;36.536;23.064;2022-07-23T07:06:00;30.40;78.20
20771;DHT22;10545;36.536;23.064;2022-07-23T07:08:26;30.60;79.10
20771;DHT22;10545;36.536;23.064;2022-07-23T07:10:52;30.60;78.70
20771;DHT22;10545;36.536;23.064;2022-07-23T07:13:19;30.70;80.90
20771;DHT22;10545;36.536;23.064;2022-07-23T07:15:45;30.70;82.20
20771;DHT22;10545;36.536;23.064;2022-07-23T07:18:11;30.60;84.70
20771;DHT22;10545;36.536;23.064;2022-07-23T07:20:37;30.70;85.40
20771;DHT22;10545;36.536;23.064;2022-07-23T07:23:03;30.90;83.80
20771;DHT22;10545;36.536;23.064;2022-07-23T07:25:30;31.00;85.30
20771;DHT22;10545;36.536;23.064;2022-07-23T07:27:56;31.10;74.40
20771;DHT22;10545;36.536;23.064;2022-07-23T07:30:22;31.30;73.30
20771;DHT22;10545;36.536;23.064;2022-07-23T07:32:49;31.20;73.30
20771;DHT22;10545;36.536;23.064;2022-07-23T07:35:15;31.30;72.80
20771;DHT22;10545;36.536;23.064;2022-07-23T07:37:41;31.40;72.40
20771;DHT22;10545;36.536;23.064;2022-07-23T07:40:09;31.30;72.80
20771;DHT22;10545;36.536;23.064;2022-07-23T07:42:45;31.50;72.50
20771;DHT22;10545;36.536;23.064;2022-07-23T07:45:11;31.50;72.10
20771;DHT22;10545;36.536;23.064;2022-07-23T07:47:38;31.60;71.60
20771;DHT22;10545;36.536;23.064;2022-07-23T07:50:05;31.80;71.90
20771;DHT22;10545;36.536;23.064;2022-07-23T07:52:35;31.90;71.20
20771;DHT22;10545;36.536;23.064;2022-07-23T07:55:06;31.80;71.20
20771;DHT22;10545;36.536;23.064;2022-07-23T07:57:33;31.70;71.60
20771;DHT22;10545;36.536;23.064;2022-07-23T07:59:59;31.70;71.30
20771;DHT22;10545;36.536;23.064;2022-07-23T08:02:26;31.70;71.90
20771;DHT22;10545;36.536;23.064;2022-07-23T08:04:52;31.70;71.60
20771;DHT22;10545;36.536;23.064;2022-07-23T08:07:19;31.80;71.50
20771;DHT22;10545;36.536;23.064;2022-07-23T08:09:45;31.80;72.10
20771;DHT22;10545;36.536;23.064;2022-07-23T08:12:11;31.90;72.00
20771;DHT22;10545;36.536;23.064;2022-07-23T08:14:38;32.00;72.20
20771;DHT22;10545;36.536;23.064;2022-07-23T08:17:04;32.20;71.20
20771;DHT22;10545;36.536;23.064;2022-07-23T08:19:30;32.10;70.80
20771;DHT22;10545;36.536;23.064;2022-07-23T08:21:56;31.90;70.80
20771;DHT22;10545;36.536;23.064;2022-07-23T08:24:22;31.90;71.50
20771;DHT22;10545;36.536;23.064;2022-07-23T08:26:48;32.10;71.40
20771;DHT22;10545;36.536;23.064;2022-07-23T08:29:15;32.20;70.80
20771;DHT22;10545;36.536;23.064;2022-07-23T08:31:41;32.40;70.70
20771;DHT22;10545;36.536;23.064;2022-07-23T08:34:07;32.60;70.20
20771;DHT22;10545;36.536;23.064;2022-07-23T08:36:33;32.80;69.50
20771;DHT22;10545;36.536;23.064;2022-07-23T08:38:59;32.90;69.40
20771;DHT22;10545;36.536;23.064;2022-07-23T08:41:28;32.90;69.70
20771;DHT22;10545;36.536;23.064;2022-07-23T08:43:54;32.90;68.60
20771;DHT22;10545;36.536;23.064;2022-07-23T08:46:20;32.90;68.10
20771;DHT22;10545;36.536;23.064;2022-07-23T08:48:48;33.00;68.30
20771;DHT22;10545;36.536;23.064;2022-07-23T08:51:16;33.00;67.50
20771;DHT22;10545;36.536;23.064;2022-07-23T08:53:43;33.10;71.50
20771;DHT22;10545;36.536;23.064;2022-07-23T08:56:10;33.20;71.90
20771;DHT22;10545;36.536;23.064;2022-07-23T08:58:36;33.10;71.10
20771;DHT22;10545;36.536;23.064;2022-07-23T09:01:03;33.10;73.30
20771;DHT22;10545;36.536;23.064;2022-07-23T09:03:32;33.30;74.00
20771;DHT22;10545;36.536;23.064;2022-07-23T09:06:00;33.40;65.50
20771;DHT22;10545;36.536;23.064;2022-07-23T09:08:41;33.50;68.50
20771;DHT22;10545;36.536;23.064;2022-07-23T09:11:10;33.50;76.70
20771;DHT22;10545;36.536;23.064;2022-07-23T09:13:50;33.60;68.00
20771;DHT22;10545;36.536;23.064;2022-07-23T09:16:27;33.70;82.60
20771;DHT22;10545;36.536;23.064;2022-07-23T09:19:06;33.60;80.30
20771;DHT22;10545;36.536;23.064;2022-07-23T09:21:37;33.30;78.80
20771;DHT22;10545;36.536;23.064;2022-07-23T09:24:11;33.30;78.80
20771;DHT22;10545;36.536;23.064;2022-07-23T09:26:45;33.40;78.40
20771;DHT22;10545;36.536;23.064;2022-07-23T09:29:20;33.40;77.80
20771;DHT22;10545;36.536;23.064;2022-07-23T09:32:00;33.50;77.40
20771;DHT22;10545;36.536;23.064;2022-07-23T09:34:30;33.60;78.70
20771;DHT22;10545;36.536;23.064;2022-07-23T09:37:10;33.70;78.40
20771;DHT22;10545;36.536;23.064;2022-07-23T09:39:36;33.80;77.10
20771;DHT22;10545;36.536;23.064;2022-07-23T09:42:21;33.90;77.90
20771;DHT22;10545;36.536;23.064;2022-07-23T09:44:54;34.00;76.50
20771;DHT22;10545;36.536;23.064;2022-07-23T09:47:22;33.90;79.60
20771;DHT22;10545;36.536;23.064;2022-07-23T09:52:29;34.00;73.90
20771;DHT22;10545;36.536;23.064;2022-07-23T09:55:01;34.10;74.70
20771;DHT22;10545;36.536;23.064;2022-07-23T09:57:27;34.20;75.10
20771;DHT22;10545;36.536;23.064;2022-07-23T09:59:57;34.10;79.90
20771;DHT22;10545;36.536;23.064;2022-07-23T10:02:25;33.90;80.50
20771;DHT22;10545;36.536;23.064;2022-07-23T10:04:54;34.00;84.30
20771;DHT22;10545;36.536;23.064;2022-07-23T10:07:22;34.10;80.10
20771;DHT22;10545;36.536;23.064;2022-07-23T10:09:50;34.00;75.70
20771;DHT22;10545;36.536;23.064;2022-07-23T10:12:19;33.90;69.40
20771;DHT22;10545;36.536;23.064;2022-07-23T10:14:59;34.00;71.50
20771;DHT22;10545;36.536;23.064;2022-07-23T10:17:28;34.00;70.70
20771;DHT22;10545;36.536;23.064;2022-07-23T10:19:55;34.00;69.50
20771;DHT22;10545;36.536;23.064;2022-07-23T10:22:27;34.10;69.70
20771;DHT22;10545;36.536;23.064;2022-07-23T10:25:12;34.20;70.00
20771;DHT22;10545;36.536;23.064;2022-07-23T10:27:44;34.30;71.10
20771;DHT22;10545;36.536;23.064;2022-07-23T10:30:28;34.40;77.70
20771;DHT22;10545;36.536;23.064;2022-07-23T10:38:31;34.60;60.50
20771;DHT22;10545;36.536;23.064;2022-07-23T10:41:03;34.70;60.70
20771;DHT22;10545;36.536;23.064;2022-07-23T10:43:31;34.70;61.00
20771;DHT22;10545;36.536;23.064;2022-07-23T10:46:21;34.70;60.50
20771;DHT22;10545;36.536;23.064;2022-07-23T10:54:41;34.60;61.00
20771;DHT22;10545;36.536;23.064;2022-07-23T10:57:09;34.70;60.80
20771;DHT22;10545;36.536;23.064;2022-07-23T11:02:31;34.80;60.20
20771;DHT22;10545;36.536;23.064;2022-07-23T11:05:17;34.80;60.70
20771;DHT22;10545;36.536;23.064;2022-07-23T11:10:40;34.80;60.60
20771;DHT22;10545;36.536;23.064;2022-07-23T11:16:14;35.00;59.80
20771;DHT22;10545;36.536;23.064;2022-07-23T11:24:09;34.90;60.00
20771;DHT22;10545;36.536;23.064;2022-07-23T11:26:54;34.90;59.80
20771;DHT22;10545;36.536;23.064;2022-07-23T11:32:03;34.90;59.80
20771;DHT22;10545;36.536;23.064;2022-07-23T11:34:43;34.90;59.90
20771;DHT22;10545;36.536;23.064;2022-07-23T11:37:26;35.00;59.80
20771;DHT22;10545;36.536;23.064;2022-07-23T11:39:57;35.00;60.10
20771;DHT22;10545;36.536;23.064;2022-07-23T11:42:24;35.10;59.10
20771;DHT22;10545;36.536;23.064;2022-07-23T11:44:51;35.10;59.60
20771;DHT22;10545;36.536;23.064;2022-07-23T11:47:23;35.10;58.90
20771;DHT22;10545;36.536;23.064;2022-07-23T11:50:00;35.20;58.90
20771;DHT22;10545;36.536;23.064;2022-07-23T11:52:27;35.20;58.50
20771;DHT22;10545;36.536;23.064;2022-07-23T11:55:03;35.20;58.20
20771;DHT22;10545;36.536;23.064;2022-07-23T11:57:55;35.30;58.40
20771;DHT22;10545;36.536;23.064;2022-07-23T12:00:31;35.30;57.70
20771;DHT22;10545;36.536;23.064;2022-07-23T12:06:16;35.00;57.50
20771;DHT22;10545;36.536;23.064;2022-07-23T12:08:42;34.90;57.10
20771;DHT22;10545;36.536;23.064;2022-07-23T12:11:12;34.90;57.00
20771;DHT22;10545;36.536;23.064;2022-07-23T12:13:38;34.90;57.50
20771;DHT22;10545;36.536;23.064;2022-07-23T12:16:04;35.00;57.30
20771;DHT22;10545;36.536;23.064;2022-07-23T12:18:32;35.10;57.10
20771;DHT22;10545;36.536;23.064;2022-07-23T12:21:04;35.20;57.10
20771;DHT22;10545;36.536;23.064;2022-07-23T12:23:32;35.10;57.00
20771;DHT22;10545;36.536;23.064;2022-07-23T12:26:02;35.20;57.10
20771;DHT22;10545;36.536;23.064;2022-07-23T12:28:35;35.30;57.20
20771;DHT22;10545;36.536;23.064;2022-07-23T12:31:04;35.40;56.00
20771;DHT22;10545;36.536;23.064;2022-07-23T12:33:33;35.40;55.90
20771;DHT22;10545;36.536;23.064;2022-07-23T12:36:02;35.40;56.40
20771;DHT22;10545;36.536;23.064;2022-07-23T12:38:41;35.30;55.90
20771;DHT22;10545;36.536;23.064;2022-07-23T12:41:09;35.30;56.10
20771;DHT22;10545;36.536;23.064;2022-07-23T12:43:44;35.30;56.40
20771;DHT22;10545;36.536;23.064;2022-07-23T12:46:13;35.30;56.30
20771;DHT22;10545;36.536;23.064;2022-07-23T12:51:29;35.00;56.50
20771;DHT22;10545;36.536;23.064;2022-07-23T12:54:09;35.00;56.40
20771;DHT22;10545;36.536;23.064;2022-07-23T12:56:40;34.80;56.60
20771;DHT22;10545;36.536;23.064;2022-07-23T12:59:09;34.80;57.00
20771;DHT22;10545;36.536;23.064;2022-07-23T13:01:38;34.80;56.70
20771;DHT22;10545;36.536;23.064;2022-07-23T13:04:07;34.70;56.80
20771;DHT22;10545;36.536;23.064;2022-07-23T13:06:36;34.70;57.30
20771;DHT22;10545;36.536;23.064;2022-07-23T13:09:05;34.70;57.10
20771;DHT22;10545;36.536;23.064;2022-07-23T13:11:32;34.70;57.30
20771;DHT22;10545;36.536;23.064;2022-07-23T13:13:59;34.80;57.00
20771;DHT22;10545;36.536;23.064;2022-07-23T13:16:29;34.70;56.30
20771;DHT22;10545;36.536;23.064;2022-07-23T13:18:59;34.70;56.70
20771;DHT22;10545;36.536;23.064;2022-07-23T13:21:26;34.80;56.80
20771;DHT22;10545;36.536;23.064;2022-07-23T13:23:53;34.90;56.50
20771;DHT22;10545;36.536;23.064;2022-07-23T13:26:38;35.00;56.10
20771;DHT22;10545;36.536;23.064;2022-07-23T13:29:09;35.10;56.60
20771;DHT22;10545;36.536;23.064;2022-07-23T13:31:39;35.30;56.30
20771;DHT22;10545;36.536;23.064;2022-07-23T13:34:05;35.20;54.80
20771;DHT22;10545;36.536;23.064;2022-07-23T13:36:37;35.00;55.40
20771;DHT22;10545;36.536;23.064;2022-07-23T13:39:04;34.80;56.00
20771;DHT22;10545;36.536;23.064;2022-07-23T13:41:30;34.70;56.20
20771;DHT22;10545;36.536;23.064;2022-07-23T13:43:57;34.80;56.60
20771;DHT22;10545;36.536;23.064;2022-07-23T13:46:24;34.90;56.70
20771;DHT22;10545;36.536;23.064;2022-07-23T13:48:50;34.90;56.80
20771;DHT22;10545;36.536;23.064;2022-07-23T13:51:16;35.00;56.70
20771;DHT22;10545;36.536;23.064;2022-07-23T13:53:43;34.90;57.10
20771;DHT22;10545;36.536;23.064;2022-07-23T13:56:10;34.80;57.10
20771;DHT22;10545;36.536;23.064;2022-07-23T13:58:37;34.80;57.20
20771;DHT22;10545;36.536;23.064;2022-07-23T14:01:10;34.80;57.20
20771;DHT22;10545;36.536;23.064;2022-07-23T14:03:36;34.70;57.50
20771;DHT22;10545;36.536;23.064;2022-07-23T14:06:03;34.80;57.80
20771;DHT22;10545;36.536;23.064;2022-07-23T14:08:33;34.70;57.70
20771;DHT22;10545;36.536;23.064;2022-07-23T14:10:59;34.70;57.50
20771;DHT22;10545;36.536;23.064;2022-07-23T14:13:25;34.70;56.80
20771;DHT22;10545;36.536;23.064;2022-07-23T14:15:51;34.70;57.00
20771;DHT22;10545;36.536;23.064;2022-07-23T14:18:17;34.80;57.30
20771;DHT22;10545;36.536;23.064;2022-07-23T14:20:44;34.90;56.70
20771;DHT22;10545;36.536;23.064;2022-07-23T14:23:10;34.90;57.00
20771;DHT22;10545;36.536;23.064;2022-07-23T14:25:36;34.90;56.60
20771;DHT22;10545;36.536;23.064;2022-07-23T14:28:03;34.90;56.80
20771;DHT22;10545;36.536;23.064;2022-07-23T14:30:29;34.90;57.20
20771;DHT22;10545;36.536;23.064;2022-07-23T14:32:55;34.90;57.50
20771;DHT22;10545;36.536;23.064;2022-07-23T14:35:21;34.70;57.80
20771;DHT22;10545;36.536;23.064;2022-07-23T14:37:49;34.60;57.90
20771;DHT22;10545;36.536;23.064;2022-07-23T14:40:15;34.50;58.40
20771;DHT22;10545;36.536;23.064;2022-07-23T14:42:41;34.40;58.20
20771;DHT22;10545;36.536;23.064;2022-07-23T14:45:08;34.20;57.80
20771;DHT22;10545;36.536;23.064;2022-07-23T14:47:35;34.00;57.10
20771;DHT22;10545;36.536;23.064;2022-07-23T14:50:06;34.00;57.50
20771;DHT22;10545;36.536;23.064;2022-07-23T14:52:50;34.00;57.10
20771;DHT22;10545;36.536;23.064;2022-07-23T14:55:17;34.00;56.60
20771;DHT22;10545;36.536;23.064;2022-07-23T14:57:44;33.90;57.10
20771;DHT22;10545;36.536;23.064;2022-07-23T15:00:10;34.00;57.70
20771;DHT22;10545;36.536;23.064;2022-07-23T15:02:36;33.90;57.90
20771;DHT22;10545;36.536;23.064;2022-07-23T15:05:03;34.00;58.80
20771;DHT22;10545;36.536;23.064;2022-07-23T15:07:30;34.00;59.10
20771;DHT22;10545;36.536;23.064;2022-07-23T15:09:57;34.00;59.70
20771;DHT22;10545;36.536;23.064;2022-07-23T15:12:24;33.90;59.80
20771;DHT22;10545;36.536;23.064;2022-07-23T15:14:50;33.80;59.70
20771;DHT22;10545;36.536;23.064;2022-07-23T15:17:17;33.80;59.80
20771;DHT22;10545;36.536;23.064;2022-07-23T15:19:43;33.80;59.70
20771;DHT22;10545;36.536;23.064;2022-07-23T15:22:09;33.90;60.00
20771;DHT22;10545;36.536;23.064;2022-07-23T15:24:35;34.00;60.60
20771;DHT22;10545;36.536;23.064;2022-07-23T15:27:01;33.90;60.80
20771;DHT22;10545;36.536;23.064;2022-07-23T15:29:27;33.90;61.30
20771;DHT22;10545;36.536;23.064;2022-07-23T15:31:54;33.90;61.10
20771;DHT22;10545;36.536;23.064;2022-07-23T15:34:22;33.70;61.90
20771;DHT22;10545;36.536;23.064;2022-07-23T15:36:52;33.60;62.40
20771;DHT22;10545;36.536;23.064;2022-07-23T15:39:20;33.60;62.80
20771;DHT22;10545;36.536;23.064;2022-07-23T15:41:52;33.40;62.80
20771;DHT22;10545;36.536;23.064;2022-07-23T15:44:19;33.30;63.10
20771;DHT22;10545;36.536;23.064;2022-07-23T15:46:46;33.20;63.10
20771;DHT22;10545;36.536;23.064;2022-07-23T15:49:19;33.10;63.10
20771;DHT22;10545;36.536;23.064;2022-07-23T15:51:45;33.10;62.60
20771;DHT22;10545;36.536;23.064;2022-07-23T15:54:11;33.10;62.80
20771;DHT22;10545;36.536;23.064;2022-07-23T15:56:38;33.00;62.60
20771;DHT22;10545;36.536;23.064;2022-07-23T15:59:04;32.90;62.90